createdAt,value
2019-06-27T00:00:50.708Z,23.28
2019-06-27T00:03:20.558Z,23.13
2019-06-27T00:05:50.374Z,22.95
2019-06-27T00:08:20.211Z,22.65
2019-06-27T00:10:50.005Z,22.59
2019-06-27T00:13:19.755Z,22.44
2019-06-27T00:15:49.500Z,22.16
2019-06-27T00:18:19.325Z,22.24
2019-06-27T00:20:49.091Z,22.21
2019-06-27T00:23:18.891Z,22.18
2019-06-27T00:25:48.670Z,22.12
2019-06-27T00:28:18.429Z,22.18
2019-06-27T00:30:48.245Z,22.15
2019-06-27T00:33:18.114Z,22.20
2019-06-27T00:35:47.880Z,22.19
2019-06-27T00:38:17.667Z,22.18
2019-06-27T00:40:47.421Z,22.33
2019-06-27T00:43:17.247Z,22.33
2019-06-27T00:45:46.998Z,22.26
2019-06-27T00:48:16.782Z,22.17
2019-06-27T00:50:47.046Z,22.22
2019-06-27T00:53:16.749Z,22.33
2019-06-27T00:55:46.363Z,22.34
2019-06-27T00:58:15.975Z,22.43
2019-06-27T01:00:45.696Z,22.45
2019-06-27T01:03:15.789Z,22.35
2019-06-27T01:05:45.408Z,22.21
2019-06-27T01:08:15.208Z,22.23
2019-06-27T01:10:44.814Z,22.00
2019-06-27T01:13:14.413Z,22.12
2019-06-27T01:15:44.089Z,22.11
2019-06-27T01:18:13.725Z,22.20
2019-06-27T01:20:43.375Z,22.22
2019-06-27T01:23:12.989Z,22.28
2019-06-27T01:25:42.566Z,22.25
2019-06-27T01:28:12.208Z,22.34
2019-06-27T01:30:41.896Z,22.34
2019-06-27T01:33:11.508Z,22.37
2019-06-27T01:35:41.100Z,22.33
2019-06-27T01:38:10.730Z,22.44
2019-06-27T01:40:40.316Z,22.18
2019-06-27T01:43:09.951Z,22.29
2019-06-27T01:45:52.633Z,22.18
2019-06-27T01:48:22.383Z,22.15
2019-06-27T01:50:52.005Z,22.17
2019-06-27T01:53:21.621Z,22.08
2019-06-27T01:55:51.300Z,21.86
2019-06-27T01:58:20.932Z,21.74
2019-06-27T02:00:50.698Z,21.82
2019-06-27T02:03:20.418Z,21.94
2019-06-27T02:05:50.131Z,21.95
2019-06-27T02:08:19.747Z,21.96
2019-06-27T02:10:49.364Z,22.07
2019-06-27T02:13:19.038Z,22.15
2019-06-27T02:15:48.633Z,22.21
2019-06-27T02:18:18.228Z,22.24
2019-06-27T02:20:47.828Z,22.05
2019-06-27T02:23:17.441Z,22.09
2019-06-27T02:25:47.118Z,22.03
2019-06-27T02:28:16.720Z,21.87
2019-06-27T02:30:46.643Z,21.85
2019-06-27T02:33:16.329Z,21.90
2019-06-27T02:35:45.965Z,22.08
2019-06-27T02:38:15.662Z,21.96
2019-06-27T02:40:45.337Z,22.09
2019-06-27T02:43:14.949Z,22.10
2019-06-27T02:45:44.568Z,22.05
2019-06-27T02:48:14.165Z,21.98
2019-06-27T02:50:43.823Z,22.01
2019-06-27T02:53:13.446Z,22.13
2019-06-27T02:55:43.078Z,22.29
2019-06-27T02:58:28.662Z,22.26
2019-06-27T03:00:44.074Z,22.38
2019-06-27T03:03:13.739Z,22.39
2019-06-27T03:05:43.439Z,22.51
2019-06-27T03:08:13.079Z,22.38
2019-06-27T03:10:42.771Z,22.57
2019-06-27T03:13:12.565Z,22.54
2019-06-27T03:15:42.212Z,22.50
2019-06-27T03:18:11.863Z,22.57
2019-06-27T03:20:41.513Z,22.55
2019-06-27T03:23:11.195Z,22.54
2019-06-27T03:25:40.858Z,22.62
2019-06-27T03:28:10.530Z,22.58
2019-06-27T03:30:40.122Z,22.57
2019-06-27T03:33:09.726Z,22.59
2019-06-27T03:35:39.446Z,22.73
2019-06-27T03:38:09.059Z,22.85
2019-06-27T03:40:38.729Z,22.99
2019-06-27T03:43:08.312Z,23.09
2019-06-27T03:45:37.895Z,23.27
2019-06-27T03:48:07.687Z,23.49
2019-06-27T03:50:37.318Z,23.52
2019-06-27T03:53:07.048Z,23.63
2019-06-27T03:55:36.644Z,23.89
2019-06-27T03:58:06.297Z,23.82
2019-06-27T04:00:36.035Z,24.17
2019-06-27T04:03:05.744Z,23.79
2019-06-27T04:05:35.411Z,23.58
2019-06-27T04:08:05.070Z,23.51
2019-06-27T04:10:34.935Z,23.51
2019-06-27T04:13:04.633Z,23.59
2019-06-27T04:15:34.324Z,23.76
2019-06-27T04:18:04.018Z,23.81
2019-06-27T04:20:33.683Z,23.78
2019-06-27T04:23:03.300Z,23.87
2019-06-27T04:25:32.930Z,24.26
2019-06-27T04:28:02.582Z,23.86
2019-06-27T04:30:32.273Z,23.86
2019-06-27T04:33:01.950Z,24.16
2019-06-27T04:35:31.614Z,24.43
2019-06-27T04:38:01.257Z,24.14
2019-06-27T04:40:30.877Z,24.29
2019-06-27T04:43:05.099Z,23.93
2019-06-27T04:45:31.933Z,23.92
2019-06-27T04:48:01.561Z,24.15
2019-06-27T04:50:31.196Z,24.51
2019-06-27T04:53:00.890Z,24.40
2019-06-27T04:55:30.562Z,24.43
2019-06-27T04:58:00.158Z,24.59
2019-06-27T05:00:31.068Z,24.44
2019-06-27T05:03:00.727Z,24.30
2019-06-27T05:05:30.365Z,24.06
2019-06-27T05:07:59.965Z,24.06
2019-06-27T05:10:29.626Z,24.33
2019-06-27T05:12:59.199Z,24.66
2019-06-27T05:15:28.933Z,24.78
2019-06-27T05:17:58.597Z,24.33
2019-06-27T05:20:28.207Z,24.33
2019-06-27T05:22:57.791Z,24.61
2019-06-27T05:25:29.713Z,24.68
2019-06-27T05:27:58.745Z,24.90
2019-06-27T05:30:28.390Z,24.86
2019-06-27T05:32:58.018Z,24.47
2019-06-27T05:35:27.609Z,24.35
2019-06-27T05:37:57.253Z,24.48
2019-06-27T05:40:26.878Z,24.86
2019-06-27T05:42:56.582Z,24.39
2019-06-27T05:45:27.022Z,24.35
2019-06-27T05:47:56.648Z,24.71
2019-06-27T05:50:26.223Z,24.99
2019-06-27T05:52:55.945Z,25.10
2019-06-27T05:55:25.537Z,25.23
2019-06-27T05:57:55.180Z,25.39
2019-06-27T06:00:28.936Z,25.29
2019-06-27T06:02:56.240Z,25.29
2019-06-27T06:05:25.817Z,25.45
2019-06-27T06:07:55.512Z,25.20
2019-06-27T06:10:25.149Z,25.20
2019-06-27T06:12:54.757Z,25.40
2019-06-27T06:15:24.368Z,25.66
2019-06-27T06:17:53.984Z,25.63
2019-06-27T06:20:23.670Z,25.63
2019-06-27T06:22:53.306Z,25.77
2019-06-27T06:25:22.877Z,25.69
2019-06-27T06:27:52.488Z,25.40
2019-06-27T06:30:23.422Z,25.94
2019-06-27T06:32:53.037Z,26.31
2019-06-27T06:35:22.635Z,26.31
2019-06-27T06:37:52.247Z,25.99
2019-06-27T06:40:21.880Z,26.19
2019-06-27T06:42:51.471Z,26.37
2019-06-27T06:45:21.265Z,26.31
2019-06-27T06:47:50.944Z,26.29
2019-06-27T06:50:23.367Z,26.42
2019-06-27T06:52:56.875Z,26.56
2019-06-27T06:55:26.490Z,26.64
2019-06-27T06:57:56.068Z,26.37
2019-06-27T07:00:26.722Z,26.73
2019-06-27T07:02:56.301Z,26.88
2019-06-27T07:05:26.259Z,26.72
2019-06-27T07:07:55.864Z,26.36
2019-06-27T07:10:25.465Z,26.77
2019-06-27T07:12:55.115Z,26.94
2019-06-27T07:15:24.876Z,27.00
2019-06-27T07:17:54.533Z,27.38
2019-06-27T07:20:24.173Z,27.10
2019-06-27T07:22:53.859Z,27.17
2019-06-27T07:25:23.559Z,27.41
2019-06-27T07:27:53.404Z,27.49
2019-06-27T07:30:23.272Z,27.60
2019-06-27T07:32:53.034Z,27.25
2019-06-27T07:35:22.980Z,27.62
2019-06-27T07:37:52.598Z,28.14
2019-06-27T07:40:22.217Z,28.46
2019-06-27T07:42:51.872Z,28.29
2019-06-27T07:45:21.487Z,28.38
2019-06-27T07:47:51.080Z,28.75
2019-06-27T07:50:21.131Z,28.56
2019-06-27T07:52:50.710Z,28.62
2019-06-27T07:55:23.365Z,28.30
2019-06-27T07:57:53.014Z,28.67
2019-06-27T08:00:24.270Z,28.38
2019-06-27T08:02:53.926Z,28.39
2019-06-27T08:05:23.625Z,28.92
2019-06-27T08:07:53.223Z,28.99
2019-06-27T08:10:22.937Z,28.77
2019-06-27T08:12:52.518Z,29.23
2019-06-27T08:15:22.231Z,28.85
2019-06-27T08:17:51.840Z,28.90
2019-06-27T08:20:21.625Z,28.87
2019-06-27T08:22:51.231Z,28.93
2019-06-27T08:25:21.256Z,28.92
2019-06-27T08:27:50.870Z,29.40
2019-06-27T08:30:20.574Z,29.95
2019-06-27T08:32:50.213Z,29.85
2019-06-27T08:35:19.843Z,30.09
2019-06-27T08:37:49.433Z,29.66
2019-06-27T08:40:19.090Z,29.92
2019-06-27T08:42:48.780Z,29.89
2019-06-27T08:45:18.651Z,30.35
2019-06-27T08:47:48.232Z,30.21
2019-06-27T08:50:18.204Z,30.24
2019-06-27T08:52:47.927Z,30.33
2019-06-27T08:55:17.548Z,30.38
2019-06-27T08:57:47.175Z,30.13
2019-06-27T09:00:17.021Z,30.62
2019-06-27T09:02:46.622Z,30.40
2019-06-27T09:05:16.477Z,30.82
2019-06-27T09:07:46.184Z,30.89
2019-06-27T09:10:17.296Z,31.45
2019-06-27T09:12:47.091Z,31.13
2019-06-27T09:15:16.812Z,30.80
2019-06-27T09:17:46.482Z,31.23
2019-06-27T09:20:17.278Z,31.74
2019-06-27T09:22:46.964Z,32.08
2019-06-27T09:25:17.178Z,32.22
2019-06-27T09:27:46.915Z,32.35
2019-06-27T09:30:18.324Z,32.16
2019-06-27T09:32:48.005Z,32.23
2019-06-27T09:35:17.728Z,32.63
2019-06-27T09:37:47.730Z,32.44
2019-06-27T09:40:17.887Z,32.57
2019-06-27T09:42:48.093Z,33.11
2019-06-27T09:45:18.212Z,33.06
2019-06-27T09:47:48.023Z,32.87
2019-06-27T09:50:21.428Z,33.02
2019-06-27T09:52:49.340Z,33.31
2019-06-27T09:55:20.648Z,32.90
2019-06-27T09:57:50.482Z,32.54
2019-06-27T10:00:22.799Z,32.55
2019-06-27T10:02:52.683Z,33.20
2019-06-27T10:05:22.372Z,33.18
2019-06-27T10:07:52.534Z,33.00
2019-06-27T10:10:22.895Z,32.95
2019-06-27T10:12:53.051Z,32.87
2019-06-27T10:15:23.294Z,32.53
2019-06-27T10:17:53.776Z,32.90
2019-06-27T10:20:24.077Z,33.00
2019-06-27T10:22:53.800Z,33.51
2019-06-27T10:25:23.426Z,33.03
2019-06-27T10:27:53.125Z,33.04
2019-06-27T10:30:23.535Z,32.93
2019-06-27T10:32:59.052Z,33.28
2019-06-27T10:35:24.805Z,33.53
2019-06-27T10:37:54.609Z,33.77
2019-06-27T10:40:24.702Z,33.35
2019-06-27T10:42:54.552Z,33.32
2019-06-27T10:45:24.304Z,33.51
2019-06-27T10:47:53.976Z,33.56
2019-06-27T10:50:23.605Z,33.99
2019-06-27T10:52:53.300Z,34.05
2019-06-27T10:55:22.924Z,34.75
2019-06-27T10:57:52.547Z,34.59
2019-06-27T11:00:22.364Z,34.63
2019-06-27T11:02:52.064Z,34.12
2019-06-27T11:05:21.707Z,34.10
2019-06-27T11:07:51.421Z,33.87
2019-06-27T11:10:21.190Z,34.23
2019-06-27T11:12:50.797Z,34.12
2019-06-27T11:15:20.641Z,34.46
2019-06-27T11:17:50.386Z,34.00
2019-06-27T11:20:20.851Z,34.10
2019-06-27T11:22:50.498Z,34.25
2019-06-27T11:25:20.239Z,34.62
2019-06-27T11:27:49.918Z,34.97
2019-06-27T11:30:19.919Z,34.52
2019-06-27T11:32:50.212Z,34.61
2019-06-27T11:35:20.939Z,34.97
2019-06-27T11:37:51.054Z,35.19
2019-06-27T11:40:21.140Z,34.30
2019-06-27T11:42:50.822Z,34.12
2019-06-27T11:45:20.939Z,34.30
2019-06-27T11:47:50.686Z,34.89
2019-06-27T11:50:20.254Z,35.38
2019-06-27T11:52:49.945Z,35.55
2019-06-27T11:55:19.588Z,35.28
2019-06-27T11:57:49.277Z,34.92
2019-06-27T12:00:20.041Z,35.71
2019-06-27T12:02:49.777Z,35.50
2019-06-27T12:05:19.729Z,35.51
2019-06-27T12:07:49.404Z,35.70
2019-06-27T12:10:19.716Z,35.13
2019-06-27T12:12:49.453Z,35.33
2019-06-27T12:15:19.547Z,35.09
2019-06-27T12:17:49.179Z,35.44
2019-06-27T12:20:18.837Z,35.55
2019-06-27T12:22:48.545Z,35.32
2019-06-27T12:25:18.239Z,35.12
2019-06-27T12:27:47.939Z,35.55
2019-06-27T12:30:17.883Z,35.44
2019-06-27T12:32:52.549Z,35.59
2019-06-27T12:35:19.074Z,35.47
2019-06-27T12:37:48.889Z,36.16
2019-06-27T12:40:18.990Z,35.65
2019-06-27T12:42:49.050Z,35.93
2019-06-27T12:45:19.144Z,35.88
2019-06-27T12:47:48.752Z,35.95
2019-06-27T12:50:18.721Z,35.64
2019-06-27T12:52:48.409Z,36.31
2019-06-27T12:55:18.192Z,36.20
2019-06-27T12:57:47.759Z,36.74
2019-06-27T13:00:17.460Z,36.75
2019-06-27T13:02:47.094Z,36.68
2019-06-27T13:05:20.439Z,36.35
2019-06-27T13:07:48.228Z,35.71
2019-06-27T13:10:18.123Z,35.78
2019-06-27T13:12:47.752Z,35.80
2019-06-27T13:15:17.554Z,35.61
2019-06-27T13:17:47.148Z,36.34
2019-06-27T13:20:17.055Z,35.76
2019-06-27T13:22:46.698Z,35.45
2019-06-27T13:25:16.933Z,34.90
2019-06-27T13:27:52.071Z,34.20
2019-06-27T13:30:21.772Z,34.13
2019-06-27T13:32:51.405Z,34.72
2019-06-27T13:35:21.014Z,34.91
2019-06-27T13:37:53.282Z,35.43
2019-06-27T13:40:23.685Z,35.63
2019-06-27T13:42:55.644Z,35.98
2019-06-27T13:45:26.891Z,36.19
2019-06-27T13:47:56.456Z,35.55
2019-06-27T13:50:26.048Z,35.46
2019-06-27T13:52:55.656Z,35.48
2019-06-27T13:55:25.282Z,35.48
2019-06-27T13:57:57.474Z,35.27
2019-06-27T14:00:43.068Z,35.31
2019-06-27T14:03:13.054Z,35.13
2019-06-27T14:05:42.807Z,35.01
2019-06-27T14:08:12.526Z,34.95
2019-06-27T14:10:42.152Z,35.08
2019-06-27T14:13:11.741Z,34.78
2019-06-27T14:15:41.507Z,34.62
2019-06-27T14:18:11.125Z,34.63
2019-06-27T14:20:40.762Z,34.62
2019-06-27T14:23:10.392Z,34.95
2019-06-27T14:25:40.021Z,34.60
2019-06-27T14:28:09.657Z,34.42
2019-06-27T14:30:39.255Z,35.80
2019-06-27T14:33:08.912Z,35.23
2019-06-27T14:35:38.623Z,35.01
2019-06-27T14:38:08.247Z,35.21
2019-06-27T14:40:37.875Z,35.04
2019-06-27T14:43:07.519Z,35.15
2019-06-27T14:45:37.091Z,34.92
2019-06-27T14:48:06.749Z,34.41
2019-06-27T14:50:36.768Z,34.51
2019-06-27T14:53:06.438Z,34.72
2019-06-27T14:55:36.046Z,34.63
2019-06-27T14:58:05.651Z,34.65
2019-06-27T15:00:35.337Z,34.61
2019-06-27T15:03:04.954Z,34.62
2019-06-27T15:05:34.574Z,34.66
2019-06-27T15:08:04.262Z,35.09
2019-06-27T15:10:33.865Z,34.92
2019-06-27T15:13:03.522Z,34.78
2019-06-27T15:15:33.114Z,34.66
2019-06-27T15:18:02.689Z,34.91
2019-06-27T15:20:32.300Z,34.49
2019-06-27T15:23:01.963Z,34.54
2019-06-27T15:25:31.738Z,34.49
2019-06-27T15:28:01.349Z,34.51
2019-06-27T15:30:31.035Z,34.71
2019-06-27T15:33:00.699Z,34.66
2019-06-27T15:35:33.658Z,34.28
2019-06-27T15:38:01.823Z,34.54
2019-06-27T15:40:31.493Z,34.38
2019-06-27T15:43:01.093Z,34.15
2019-06-27T15:45:30.756Z,33.81
2019-06-27T15:48:00.387Z,33.91
2019-06-27T15:50:30.069Z,33.64
2019-06-27T15:52:59.733Z,33.79
2019-06-27T15:55:29.349Z,33.62
2019-06-27T15:57:59.043Z,33.87
2019-06-27T16:00:28.689Z,33.84
2019-06-27T16:02:58.401Z,33.66
2019-06-27T16:05:28.608Z,33.59
2019-06-27T16:07:58.251Z,33.64
2019-06-27T16:10:27.850Z,33.88
2019-06-27T16:12:57.897Z,33.52
2019-06-27T16:15:27.507Z,33.67
2019-06-27T16:17:57.156Z,33.66
2019-06-27T16:20:27.575Z,33.65
2019-06-27T16:22:57.216Z,33.63
2019-06-27T16:25:26.847Z,33.75
2019-06-27T16:27:56.480Z,33.72
2019-06-27T16:30:26.298Z,33.80
2019-06-27T16:32:55.898Z,33.62
2019-06-27T16:35:25.499Z,33.63
2019-06-27T16:37:55.102Z,33.68
2019-06-27T16:40:24.905Z,33.76
2019-06-27T16:42:54.508Z,33.91
2019-06-27T16:45:24.354Z,33.76
2019-06-27T16:47:53.964Z,33.92
2019-06-27T16:50:23.683Z,33.90
2019-06-27T16:52:53.292Z,33.74
2019-06-27T16:55:22.887Z,33.69
2019-06-27T16:57:52.559Z,33.81
2019-06-27T17:00:22.685Z,33.72
2019-06-27T17:02:52.663Z,33.70
2019-06-27T17:05:22.561Z,33.63
2019-06-27T17:07:52.198Z,33.45
2019-06-27T17:10:22.119Z,33.28
2019-06-27T17:12:51.753Z,33.27
2019-06-27T17:15:21.645Z,33.14
2019-06-27T17:17:51.322Z,33.07
2019-06-27T17:20:21.005Z,33.04
2019-06-27T17:22:50.586Z,32.83
2019-06-27T17:25:20.215Z,32.75
2019-06-27T17:27:49.879Z,32.38
2019-06-27T17:30:20.702Z,32.12
2019-06-27T17:32:50.370Z,31.81
2019-06-27T17:35:19.955Z,31.84
2019-06-27T17:37:49.568Z,31.54
2019-06-27T17:40:19.519Z,31.42
2019-06-27T17:42:49.159Z,31.45
2019-06-27T17:45:18.974Z,31.12
2019-06-27T17:47:48.569Z,30.94
2019-06-27T17:50:18.315Z,30.84
2019-06-27T17:52:47.902Z,30.79
2019-06-27T17:55:17.525Z,30.49
2019-06-27T17:57:47.468Z,30.44
2019-06-27T18:00:17.576Z,30.13
2019-06-27T18:02:47.177Z,30.16
2019-06-27T18:05:18.503Z,30.16
2019-06-27T18:07:48.136Z,29.87
2019-06-27T18:10:17.852Z,29.82
2019-06-27T18:12:47.489Z,29.65
2019-06-27T18:15:18.403Z,29.66
2019-06-27T18:17:47.988Z,29.74
2019-06-27T18:20:19.610Z,29.66
2019-06-27T18:22:49.179Z,29.53
2019-06-27T18:25:18.789Z,29.60
2019-06-27T18:27:48.586Z,29.55
2019-06-27T18:30:19.063Z,29.53
2019-06-27T18:32:48.650Z,29.49
2019-06-27T18:35:18.355Z,29.29
2019-06-27T18:37:48.055Z,29.27
2019-06-27T18:40:17.911Z,29.18
2019-06-27T18:42:47.503Z,29.11
2019-06-27T18:45:17.402Z,29.14
2019-06-27T18:47:47.074Z,29.13
2019-06-27T18:50:16.953Z,29.13
2019-06-27T18:52:46.540Z,29.11
2019-06-27T18:55:16.249Z,29.15
2019-06-27T18:57:45.857Z,29.24
2019-06-27T19:00:15.684Z,29.18
2019-06-27T19:02:45.345Z,29.05
2019-06-27T19:05:15.377Z,29.04
2019-06-27T19:07:46.444Z,28.85
2019-06-27T19:10:16.504Z,28.86
2019-06-27T19:12:46.175Z,28.98
2019-06-27T19:15:16.618Z,28.77
2019-06-27T19:17:46.335Z,28.89
2019-06-27T19:20:25.596Z,29.07
2019-06-27T19:23:13.138Z,28.79
2019-06-27T19:25:43.890Z,28.79
2019-06-27T19:28:13.609Z,27.76
2019-06-27T19:30:43.363Z,28.64
2019-06-27T19:33:13.128Z,28.61
2019-06-27T19:35:42.924Z,28.41
2019-06-27T19:38:12.504Z,28.65
2019-06-27T19:40:42.602Z,28.67
2019-06-27T19:43:26.734Z,28.56
2019-06-27T19:45:44.018Z,28.62
2019-06-27T19:48:13.685Z,28.67
2019-06-27T19:50:43.270Z,28.71
2019-06-27T19:53:12.898Z,28.68
2019-06-27T19:55:42.565Z,28.69
2019-06-27T19:58:12.246Z,28.40
2019-06-27T20:00:41.993Z,28.56
2019-06-27T20:03:11.582Z,28.59
2019-06-27T20:05:41.205Z,28.38
2019-06-27T20:08:19.126Z,28.20
2019-06-27T20:10:42.368Z,28.46
2019-06-27T20:13:12.213Z,28.60
2019-06-27T20:15:41.875Z,28.41
2019-06-27T20:18:11.465Z,28.36
2019-06-27T20:20:41.148Z,28.44
2019-06-27T20:23:10.806Z,27.99
2019-06-27T20:25:40.383Z,28.02
2019-06-27T20:28:09.982Z,28.01
2019-06-27T20:30:39.567Z,28.10
2019-06-27T20:33:09.178Z,27.82
2019-06-27T20:35:38.931Z,27.64
2019-06-27T20:38:08.538Z,27.65
2019-06-27T20:40:38.125Z,27.69
2019-06-27T20:43:07.781Z,27.26
2019-06-27T20:45:37.486Z,27.72
2019-06-27T20:48:07.140Z,27.78
2019-06-27T20:50:36.768Z,27.69
2019-06-27T20:53:06.362Z,27.61
2019-06-27T20:55:35.952Z,27.55
2019-06-27T20:58:05.579Z,27.61
2019-06-27T21:00:35.232Z,27.70
2019-06-27T21:03:05.035Z,27.90
2019-06-27T21:05:34.632Z,27.97
2019-06-27T21:08:04.219Z,27.70
2019-06-27T21:10:33.842Z,27.73
2019-06-27T21:13:03.531Z,27.77
2019-06-27T21:15:33.105Z,27.68
2019-06-27T21:18:02.700Z,27.52
2019-06-27T21:20:32.285Z,27.49
2019-06-27T21:23:02.007Z,27.39
2019-06-27T21:25:31.642Z,27.37
2019-06-27T21:28:01.246Z,27.39
2019-06-27T21:30:30.919Z,27.62
2019-06-27T21:33:00.556Z,27.60
2019-06-27T21:35:30.134Z,27.58
2019-06-27T21:37:59.768Z,27.56
2019-06-27T21:40:29.343Z,27.56
2019-06-27T21:42:58.957Z,27.61
2019-06-27T21:45:28.564Z,27.76
2019-06-27T21:47:58.170Z,27.75
2019-06-27T21:50:27.907Z,27.55
2019-06-27T21:52:57.530Z,27.49
2019-06-27T21:55:27.114Z,27.52
2019-06-27T21:57:59.840Z,27.33
2019-06-27T22:00:30.299Z,27.18
2019-06-27T22:02:59.930Z,27.23
2019-06-27T22:05:29.520Z,27.03
2019-06-27T22:07:59.240Z,27.10
2019-06-27T22:10:28.892Z,26.92
2019-06-27T22:12:58.578Z,26.92
2019-06-27T22:15:28.264Z,26.86
2019-06-27T22:17:57.944Z,26.94
2019-06-27T22:20:27.653Z,26.83
2019-06-27T22:22:57.326Z,26.97
2019-06-27T22:25:39.932Z,27.00
2019-06-27T22:27:58.304Z,26.38
2019-06-27T22:30:27.907Z,27.04
2019-06-27T22:32:57.497Z,27.03
2019-06-27T22:35:27.062Z,26.78
2019-06-27T22:38:14.065Z,26.87
2019-06-27T22:41:01.262Z,26.81
2019-06-27T22:43:48.483Z,26.78
2019-06-27T22:46:35.722Z,26.73
2019-06-27T22:49:04.346Z,26.71
2019-06-27T22:51:52.133Z,26.71
2019-06-27T22:54:23.285Z,26.79
2019-06-27T22:56:52.965Z,26.69
2019-06-27T22:59:22.558Z,26.78
2019-06-27T23:01:52.160Z,26.76
2019-06-27T23:04:21.756Z,26.70
2019-06-27T23:06:51.366Z,26.84
2019-06-27T23:09:20.979Z,26.68
2019-06-27T23:11:50.622Z,26.54
2019-06-27T23:14:20.207Z,26.49
2019-06-27T23:16:49.838Z,26.60
2019-06-27T23:19:19.435Z,26.50
2019-06-27T23:21:49.067Z,26.51
2019-06-27T23:24:18.683Z,26.45
2019-06-27T23:26:48.288Z,25.85
2019-06-27T23:29:17.876Z,26.65
2019-06-27T23:31:47.508Z,26.69
2019-06-27T23:34:17.139Z,26.61
2019-06-27T23:36:46.740Z,26.71
2019-06-27T23:39:16.337Z,26.67
2019-06-27T23:41:46.003Z,26.59
2019-06-27T23:44:15.649Z,26.74
2019-06-27T23:46:45.231Z,26.62
2019-06-27T23:49:14.879Z,26.67
2019-06-27T23:51:44.412Z,26.55
2019-06-27T23:54:14.005Z,26.61
2019-06-27T23:56:43.757Z,26.54
2019-06-27T23:59:13.337Z,26.64
